Vendor, Arkansas
Current Conditions -  °F | °C
As of 5:53 AM on Wednesday 28 Jan 2015 (Local Time) from KHRO Reporting Station
Clear Clear  
Wind Chill: 30°   Ceiling: Unl
Heat Index: 38°   Visibility: 10mi
Dew Point: 33°   Wind: 14mph
Humidity: 83%   Direction: 130°SE
Pressure: 30.12"   Gusts: NA
Location:  35.95°N, 93.08°W
Report Text: KHRO 281153Z AUTO 13012KT 10SM CLR 03/01 A3012 RMK AO2 SLP202 T00330006 10067 20028 56002
Loading
Personal Weather Stations






























Interactive Weather Map New forecast layout! Learn more

10-Day Weather Forecast

Advertisements
Track Severe Weather on mobile